createdAt,value
2018-04-18T00:00:36.549Z,37.80
2018-04-18T00:03:04.108Z,44.20
2018-04-18T00:05:31.725Z,41.37
2018-04-18T00:07:59.300Z,46.53
2018-04-18T00:10:26.896Z,46.77
2018-04-18T00:12:54.479Z,40.97
2018-04-18T00:15:22.063Z,40.80
2018-04-18T00:17:49.626Z,46.27
2018-04-18T00:20:17.216Z,42.33
2018-04-18T00:22:44.841Z,45.53
2018-04-18T00:25:12.400Z,47.30
2018-04-18T00:27:40.060Z,46.00
2018-04-18T00:30:07.671Z,46.37
2018-04-18T00:32:35.299Z,49.20
2018-04-18T00:35:02.876Z,45.03
2018-04-18T00:37:30.463Z,44.97
2018-04-18T00:39:58.068Z,55.10
2018-04-18T00:42:25.658Z,51.83
2018-04-18T00:44:53.252Z,46.03
2018-04-18T00:47:20.848Z,50.67
2018-04-18T00:49:48.428Z,57.03
2018-04-18T00:52:15.997Z,49.73
2018-04-18T00:54:43.565Z,55.73
2018-04-18T00:57:11.151Z,54.00
2018-04-18T00:59:38.712Z,53.43
2018-04-18T01:02:06.346Z,54.57
2018-04-18T01:04:33.907Z,54.77
2018-04-18T01:07:01.538Z,56.83
2018-04-18T01:09:29.101Z,60.57
2018-04-18T01:11:56.659Z,54.93
2018-04-18T01:14:24.270Z,58.33
2018-04-18T01:16:51.848Z,61.60
2018-04-18T01:19:19.410Z,55.47
2018-04-18T01:21:47.007Z,69.50
2018-04-18T01:24:14.588Z,62.10
2018-04-18T01:26:42.164Z,66.40
2018-04-18T01:29:09.731Z,57.10
2018-04-18T01:31:37.309Z,64.10
2018-04-18T01:34:04.868Z,61.00
2018-04-18T01:36:32.461Z,60.80
2018-04-18T01:39:00.026Z,63.87
2018-04-18T01:41:27.607Z,65.40
2018-04-18T01:43:55.179Z,61.90
2018-04-18T01:46:22.744Z,65.77
2018-04-18T01:48:50.328Z,65.07
2018-04-18T01:51:17.892Z,66.53
2018-04-18T01:53:45.456Z,70.00
2018-04-18T01:56:13.568Z,70.90
2018-04-18T01:58:41.139Z,65.23
2018-04-18T02:01:08.712Z,67.87
2018-04-18T02:03:36.300Z,73.87
2018-04-18T02:06:03.868Z,62.53
2018-04-18T02:08:31.431Z,69.23
2018-04-18T02:10:59.012Z,72.07
2018-04-18T02:13:26.637Z,68.13
2018-04-18T02:15:54.201Z,74.70
2018-04-18T02:18:21.773Z,67.77
2018-04-18T02:20:49.332Z,67.07
2018-04-18T02:23:16.896Z,63.00
2018-04-18T02:25:44.473Z,64.60
2018-04-18T02:28:12.430Z,73.83
2018-04-18T02:30:40.012Z,66.23
2018-04-18T02:33:07.579Z,69.00
2018-04-18T02:35:35.159Z,58.17
2018-04-18T02:38:02.724Z,70.00
2018-04-18T02:40:30.275Z,66.00
2018-04-18T02:42:57.830Z,68.10
2018-04-18T02:45:25.393Z,62.43
2018-04-18T02:47:52.948Z,63.77
2018-04-18T02:50:20.487Z,61.33
2018-04-18T02:52:48.104Z,71.30
2018-04-18T02:55:15.725Z,61.60
2018-04-18T02:57:43.283Z,67.13
2018-04-18T03:00:10.851Z,69.87
2018-04-18T03:02:38.480Z,59.80
2018-04-18T03:05:06.064Z,67.23
2018-04-18T03:07:33.644Z,71.07
2018-04-18T03:10:01.212Z,64.13
2018-04-18T03:12:28.787Z,72.53
2018-04-18T03:14:56.342Z,67.53
2018-04-18T03:17:23.948Z,68.97
2018-04-18T03:19:51.510Z,66.43
2018-04-18T03:22:19.073Z,66.23
2018-04-18T03:24:46.669Z,65.70
2018-04-18T03:27:14.249Z,66.13
2018-04-18T03:29:41.839Z,70.60
2018-04-18T03:32:09.394Z,63.30
2018-04-18T03:34:36.987Z,60.97
2018-04-18T03:37:04.561Z,58.87
2018-04-18T03:39:32.134Z,54.50
2018-04-18T03:41:59.688Z,57.03
2018-04-18T03:44:27.324Z,60.17
2018-04-18T03:46:54.980Z,61.97
2018-04-18T03:49:22.571Z,59.97
2018-04-18T03:51:50.146Z,58.30
2018-04-18T03:54:17.729Z,56.50
2018-04-18T03:56:45.349Z,52.67
2018-04-18T03:59:12.932Z,50.03
2018-04-18T04:01:40.518Z,53.43
2018-04-18T04:04:08.075Z,52.97
2018-04-18T04:06:35.634Z,55.93
2018-04-18T04:09:03.194Z,53.93
2018-04-18T04:11:30.742Z,59.13
2018-04-18T04:13:58.302Z,58.73
2018-04-18T04:16:37.655Z,64.07
2018-04-18T04:19:17.013Z,55.70
2018-04-18T04:21:56.324Z,57.73
2018-04-18T04:24:35.712Z,55.47
2018-04-18T04:27:03.313Z,53.20
2018-04-18T04:29:31.843Z,58.43
2018-04-18T04:31:59.430Z,54.53
2018-04-18T04:34:27.231Z,51.90
2018-04-18T04:36:54.781Z,56.90
2018-04-18T04:39:22.342Z,52.37
2018-04-18T04:41:49.942Z,53.73
2018-04-18T04:44:17.493Z,58.77
2018-04-18T04:46:45.087Z,54.37
2018-04-18T04:49:12.700Z,56.67
2018-04-18T04:51:40.300Z,53.30
2018-04-18T04:54:07.868Z,55.13
2018-04-18T04:56:35.511Z,52.47
2018-04-18T04:59:03.153Z,55.50
2018-04-18T05:01:30.728Z,49.37
2018-04-18T05:03:58.340Z,52.53
2018-04-18T05:06:25.919Z,53.93
2018-04-18T05:08:53.467Z,52.67
2018-04-18T05:11:21.113Z,55.13
2018-04-18T05:13:48.745Z,53.60
2018-04-18T05:16:16.329Z,56.23
2018-04-18T05:18:43.997Z,56.53
2018-04-18T05:21:11.602Z,57.47
2018-04-18T05:23:39.170Z,50.00
2018-04-18T05:26:06.754Z,54.13
2018-04-18T05:28:34.347Z,51.37
2018-04-18T05:31:01.909Z,55.30
2018-04-18T05:33:29.483Z,59.43
2018-04-18T05:35:57.044Z,54.00
2018-04-18T05:38:24.629Z,58.47
2018-04-18T05:40:52.213Z,48.07
2018-04-18T05:43:19.792Z,54.83
2018-04-18T05:45:47.380Z,53.33
2018-04-18T05:48:14.968Z,64.00
2018-04-18T05:50:42.522Z,52.57
2018-04-18T05:53:10.070Z,62.97
2018-04-18T05:55:37.622Z,52.60
2018-04-18T05:58:05.190Z,51.40
2018-04-18T06:00:32.772Z,47.43
2018-04-18T06:03:00.351Z,47.20
2018-04-18T06:05:27.914Z,42.10
2018-04-18T06:07:55.473Z,35.97
2018-04-18T06:10:23.037Z,37.13
2018-04-18T06:12:50.616Z,36.77
2018-04-18T06:15:18.213Z,35.47
2018-04-18T06:17:45.785Z,37.40
2018-04-18T06:20:13.368Z,34.20
2018-04-18T06:22:40.921Z,35.83
2018-04-18T06:25:08.480Z,37.97
2018-04-18T06:27:36.071Z,35.73
2018-04-18T06:30:03.653Z,32.50
2018-04-18T06:32:31.236Z,33.17
2018-04-18T06:34:58.872Z,29.83
2018-04-18T06:37:26.427Z,32.17
2018-04-18T06:39:54.012Z,33.77
2018-04-18T06:42:21.573Z,30.93
2018-04-18T06:44:49.158Z,28.53
2018-04-18T06:47:16.737Z,32.13
2018-04-18T06:49:44.305Z,31.40
2018-04-18T06:52:11.861Z,28.13
2018-04-18T06:54:39.456Z,32.17
2018-04-18T06:57:07.017Z,34.73
2018-04-18T06:59:34.574Z,36.53
2018-04-18T07:02:02.123Z,35.60
2018-04-18T07:04:29.685Z,32.30
2018-04-18T07:06:57.289Z,31.30
2018-04-18T07:09:24.870Z,34.37
2018-04-18T07:11:52.419Z,35.03
2018-04-18T07:14:19.980Z,26.90
2018-04-18T07:16:47.609Z,33.57
2018-04-18T07:19:15.218Z,37.60
2018-04-18T07:21:42.774Z,27.30
2018-04-18T07:24:10.367Z,32.00
2018-04-18T07:26:37.951Z,27.63
2018-04-18T07:29:05.501Z,30.00
2018-04-18T07:31:33.081Z,25.67
2018-04-18T07:34:00.649Z,31.13
2018-04-18T07:36:28.232Z,25.77
2018-04-18T07:38:55.827Z,26.70
2018-04-18T07:41:23.377Z,25.83
2018-04-18T07:43:50.952Z,22.33
2018-04-18T07:46:18.552Z,24.70
2018-04-18T07:48:46.120Z,22.93
2018-04-18T07:51:13.681Z,23.50
2018-04-18T07:53:41.303Z,22.75
2018-04-18T07:56:08.881Z,29.45
2018-04-18T07:58:36.467Z,25.55
2018-04-18T08:01:04.116Z,23.85
2018-04-18T08:03:31.697Z,20.33
2018-04-18T08:05:59.261Z,18.75
2018-04-18T08:08:26.869Z,19.90
2018-04-18T08:10:54.419Z,26.42
2018-04-18T08:13:21.981Z,24.77
2018-04-18T08:15:49.577Z,20.12
2018-04-18T08:18:17.131Z,20.88
2018-04-18T08:20:44.761Z,20.45
2018-04-18T08:23:12.346Z,28.55
2018-04-18T08:25:39.919Z,23.00
2018-04-18T08:28:07.509Z,22.65
2018-04-18T08:30:35.093Z,20.48
2018-04-18T08:33:02.687Z,23.05
2018-04-18T08:35:30.220Z,25.50
2018-04-18T08:37:57.797Z,21.67
2018-04-18T08:40:25.375Z,21.07
2018-04-18T08:42:52.972Z,25.67
2018-04-18T08:45:20.541Z,24.57
2018-04-18T08:47:48.118Z,21.83
2018-04-18T08:50:15.724Z,27.70
2018-04-18T08:52:43.462Z,24.03
2018-04-18T08:55:11.043Z,25.27
2018-04-18T08:57:38.617Z,26.37
2018-04-18T09:00:06.193Z,25.97
2018-04-18T09:02:33.768Z,25.53
2018-04-18T09:05:01.338Z,29.83
2018-04-18T09:07:28.912Z,30.37
2018-04-18T09:09:56.478Z,30.53
2018-04-18T09:12:24.086Z,30.57
2018-04-18T09:14:51.685Z,31.70
2018-04-18T09:17:19.341Z,33.70
2018-04-18T09:19:46.919Z,46.60
2018-04-18T09:22:14.536Z,39.70
2018-04-18T09:24:42.103Z,36.03
2018-04-18T09:27:09.719Z,39.30
2018-04-18T09:29:37.307Z,37.00
2018-04-18T09:32:04.868Z,42.30
2018-04-18T09:34:32.444Z,42.07
2018-04-18T09:36:59.982Z,47.33
2018-04-18T09:39:27.554Z,45.47
2018-04-18T09:41:55.127Z,44.83
2018-04-18T09:44:22.693Z,40.93
2018-04-18T09:46:50.269Z,42.80
2018-04-18T09:49:17.836Z,43.03
2018-04-18T09:51:45.400Z,42.73
2018-04-18T09:54:12.938Z,46.13
2018-04-18T09:56:40.493Z,52.77
2018-04-18T09:59:08.131Z,51.00
2018-04-18T10:01:41.342Z,47.07
2018-04-18T10:04:09.859Z,56.57
2018-04-18T10:06:37.427Z,45.63
2018-04-18T10:09:06.518Z,48.63
2018-04-18T10:11:34.094Z,52.70
2018-04-18T10:14:01.696Z,52.80
2018-04-18T10:16:29.254Z,58.03
2018-04-18T10:18:56.817Z,48.40
2018-04-18T10:21:24.409Z,46.77
2018-04-18T10:23:51.998Z,48.37
2018-04-18T10:26:19.572Z,51.97
2018-04-18T10:28:47.136Z,48.27
2018-04-18T10:31:14.713Z,48.63
2018-04-18T10:33:42.307Z,47.77
2018-04-18T10:36:09.862Z,42.67
2018-04-18T10:38:37.490Z,44.10
2018-04-18T10:41:05.054Z,37.43
2018-04-18T10:43:32.619Z,40.53
2018-04-18T10:46:00.244Z,43.73
2018-04-18T10:48:27.801Z,41.13
2018-04-18T10:50:55.389Z,51.00
2018-04-18T10:53:23.257Z,44.90
2018-04-18T10:55:50.851Z,38.73
2018-04-18T10:58:18.418Z,40.43
2018-04-18T11:00:46.007Z,38.27
2018-04-18T11:03:13.570Z,42.23
2018-04-18T11:05:41.144Z,38.83
2018-04-18T11:08:09.518Z,41.33
2018-04-18T11:10:37.083Z,41.20
2018-04-18T11:13:04.661Z,39.70
2018-04-18T11:15:32.924Z,41.50
2018-04-18T11:18:00.516Z,41.57
2018-04-18T11:20:28.089Z,37.40
2018-04-18T11:22:55.633Z,43.57
2018-04-18T11:25:23.189Z,45.83
2018-04-18T11:27:50.931Z,41.47
2018-04-18T11:30:18.549Z,49.60
2018-04-18T11:32:46.321Z,41.87
2018-04-18T11:35:13.882Z,47.07
2018-04-18T11:37:42.156Z,44.23
2018-04-18T11:40:10.713Z,43.40
2018-04-18T11:42:38.292Z,44.33
2018-04-18T11:45:05.864Z,45.40
2018-04-18T11:47:33.472Z,45.73
2018-04-18T11:50:01.025Z,43.47
2018-04-18T11:52:28.599Z,38.87
2018-04-18T11:54:56.175Z,36.43
2018-04-18T11:57:23.721Z,39.13
2018-04-18T11:59:51.404Z,41.03
2018-04-18T12:02:18.973Z,38.70
2018-04-18T12:04:46.561Z,38.67
2018-04-18T12:07:14.125Z,37.63
2018-04-18T12:09:45.681Z,34.17
2018-04-18T12:12:13.264Z,30.93
2018-04-18T12:14:40.809Z,33.33
2018-04-18T12:17:08.364Z,40.97
2018-04-18T12:19:36.776Z,34.43
2018-04-18T12:22:04.327Z,31.73
2018-04-18T12:24:31.871Z,36.90
2018-04-18T12:26:59.455Z,28.87
2018-04-18T12:29:27.021Z,31.73
2018-04-18T12:31:54.568Z,31.13
2018-04-18T12:34:22.162Z,22.73
2018-04-18T12:36:49.787Z,22.50
2018-04-18T12:39:17.371Z,29.43
2018-04-18T12:41:44.927Z,25.00
2018-04-18T12:44:12.508Z,25.30
2018-04-18T12:46:40.092Z,25.83
2018-04-18T12:49:07.660Z,27.73
2018-04-18T12:51:35.208Z,28.40
2018-04-18T12:54:02.758Z,31.50
2018-04-18T12:56:30.325Z,34.33
2018-04-18T12:58:57.888Z,29.87
2018-04-18T13:01:25.449Z,27.27
2018-04-18T13:03:53.008Z,32.50
2018-04-18T13:06:20.564Z,25.40
2018-04-18T13:08:48.165Z,33.50
2018-04-18T13:11:15.716Z,26.10
2018-04-18T13:13:43.275Z,26.67
2018-04-18T13:16:10.834Z,27.73
2018-04-18T13:18:38.394Z,29.50
2018-04-18T13:21:05.945Z,28.83
2018-04-18T13:23:33.514Z,28.60
2018-04-18T13:26:01.055Z,16.67
2018-04-18T13:28:28.633Z,19.90
2018-04-18T13:30:56.188Z,19.57
2018-04-18T13:33:23.774Z,22.03
2018-04-18T13:35:52.118Z,23.57
2018-04-18T13:38:19.687Z,21.03
2018-04-18T13:40:47.253Z,19.63
2018-04-18T13:43:14.829Z,23.73
2018-04-18T13:45:42.442Z,34.40
2018-04-18T13:48:09.984Z,27.77
2018-04-18T13:50:37.549Z,24.90
2018-04-18T13:53:05.124Z,22.73
2018-04-18T13:55:32.684Z,28.13
2018-04-18T13:58:00.293Z,27.23
2018-04-18T14:00:27.862Z,31.37
2018-04-18T14:02:55.419Z,32.00
2018-04-18T14:05:22.974Z,28.23
2018-04-18T14:07:50.588Z,24.73
2018-04-18T14:10:18.123Z,25.57
2018-04-18T14:12:45.682Z,23.73
2018-04-18T14:15:14.880Z,27.87
2018-04-18T14:17:42.469Z,26.10
2018-04-18T14:20:10.017Z,22.20
2018-04-18T14:22:37.580Z,29.83
2018-04-18T14:25:05.148Z,24.33
2018-04-18T14:27:32.815Z,28.07
2018-04-18T14:30:00.520Z,29.27
2018-04-18T14:32:28.071Z,26.47
2018-04-18T14:34:55.661Z,29.43
2018-04-18T14:37:23.239Z,24.23
2018-04-18T14:39:50.824Z,26.57
2018-04-18T14:42:18.498Z,24.13
2018-04-18T14:44:46.046Z,23.93
2018-04-18T14:47:13.594Z,27.17
2018-04-18T14:49:41.142Z,27.53
2018-04-18T14:52:08.712Z,28.93
2018-04-18T14:54:36.287Z,19.47
2018-04-18T14:57:03.857Z,26.07
2018-04-18T14:59:31.415Z,22.37
2018-04-18T15:01:58.990Z,22.27
2018-04-18T15:04:26.554Z,27.53
2018-04-18T15:06:54.108Z,24.73
2018-04-18T15:09:21.664Z,24.13
2018-04-18T15:11:49.233Z,24.07
2018-04-18T15:14:16.815Z,21.60
2018-04-18T15:16:44.376Z,24.40
2018-04-18T15:19:11.929Z,22.43
2018-04-18T15:21:39.502Z,20.23
2018-04-18T15:24:07.089Z,28.13
2018-04-18T15:26:34.654Z,23.10
2018-04-18T15:29:02.205Z,27.53
2018-04-18T15:31:29.768Z,27.73
2018-04-18T15:33:57.328Z,22.80
2018-04-18T15:36:24.886Z,22.07
2018-04-18T15:38:52.479Z,25.20
2018-04-18T15:41:20.057Z,25.20
2018-04-18T15:43:47.636Z,26.73
2018-04-18T15:46:15.198Z,22.80
2018-04-18T15:48:42.761Z,30.70
2018-04-18T15:51:10.332Z,27.93
2018-04-18T15:53:37.925Z,27.03
2018-04-18T15:56:05.494Z,27.80
2018-04-18T15:58:33.116Z,25.10
2018-04-18T16:01:00.678Z,23.07
2018-04-18T16:03:28.238Z,23.23
2018-04-18T16:05:55.814Z,25.73
2018-04-18T16:08:23.362Z,28.47
2018-04-18T16:10:50.965Z,23.40
2018-04-18T16:13:18.523Z,32.60
2018-04-18T16:15:46.079Z,28.47
2018-04-18T16:18:13.700Z,32.73
2018-04-18T16:20:41.277Z,28.50
2018-04-18T16:23:08.850Z,31.50
2018-04-18T16:25:36.497Z,29.80
2018-04-18T16:28:04.063Z,39.33
2018-04-18T16:30:41.601Z,34.70
2018-04-18T16:33:09.173Z,36.20
2018-04-18T16:35:36.779Z,40.60
2018-04-18T16:38:04.337Z,37.30
2018-04-18T16:40:31.910Z,31.73
2018-04-18T16:42:59.503Z,27.20
2018-04-18T16:45:27.129Z,31.67
2018-04-18T16:47:54.730Z,35.50
2018-04-18T16:50:22.354Z,28.70
2018-04-18T16:52:49.913Z,27.20
2018-04-18T16:55:17.474Z,21.13
2018-04-18T16:57:45.034Z,31.23
2018-04-18T17:00:12.668Z,28.43
2018-04-18T17:02:40.256Z,31.07
2018-04-18T17:05:07.964Z,32.47
2018-04-18T17:07:35.530Z,28.20
2018-04-18T17:10:03.328Z,26.83
2018-04-18T17:12:30.934Z,26.80
2018-04-18T17:14:58.520Z,31.40
2018-04-18T17:17:26.086Z,29.03
2018-04-18T17:19:53.845Z,38.67
2018-04-18T17:22:21.406Z,30.70
2018-04-18T17:24:48.993Z,31.83
2018-04-18T17:27:16.566Z,34.27
2018-04-18T17:29:44.134Z,30.10
2018-04-18T17:32:11.693Z,29.93
2018-04-18T17:34:39.268Z,29.67
2018-04-18T17:37:06.859Z,33.33
2018-04-18T17:39:34.528Z,38.30
2018-04-18T17:42:02.115Z,29.43
2018-04-18T17:44:29.712Z,30.00
2018-04-18T17:46:57.879Z,37.17
2018-04-18T17:49:25.424Z,33.90
2018-04-18T17:51:53.012Z,29.63
2018-04-18T17:54:20.592Z,29.57
2018-04-18T17:56:48.171Z,31.57
2018-04-18T17:59:15.735Z,34.70
2018-04-18T18:01:44.881Z,29.83
2018-04-18T18:04:13.870Z,28.30
2018-04-18T18:06:41.468Z,32.50
2018-04-18T18:09:09.379Z,29.30
2018-04-18T18:11:36.948Z,27.90
2018-04-18T18:14:04.520Z,30.50
2018-04-18T18:16:32.552Z,35.20
2018-04-18T18:19:00.161Z,28.30
2018-04-18T18:21:27.952Z,30.47
2018-04-18T18:23:55.687Z,30.40
2018-04-18T18:26:23.250Z,28.83
2018-04-18T18:28:51.084Z,30.37
2018-04-18T18:31:18.966Z,34.13
2018-04-18T18:33:46.683Z,26.60
2018-04-18T18:36:14.468Z,28.50
2018-04-18T18:38:42.071Z,32.30
2018-04-18T18:41:09.685Z,28.67
2018-04-18T18:43:37.592Z,27.73
2018-04-18T18:46:05.166Z,24.50
2018-04-18T18:48:32.741Z,31.43
2018-04-18T18:51:00.313Z,27.03
2018-04-18T18:53:27.868Z,24.97
2018-04-18T18:55:55.496Z,35.13
2018-04-18T18:58:23.135Z,28.50
2018-04-18T19:00:50.737Z,38.43
2018-04-18T19:03:18.322Z,32.07
2018-04-18T19:05:45.953Z,30.93
2018-04-18T19:08:13.730Z,26.93
2018-04-18T19:10:41.282Z,27.27
2018-04-18T19:13:08.856Z,28.50
2018-04-18T19:15:36.441Z,31.63
2018-04-18T19:18:04.033Z,32.93
2018-04-18T19:20:31.629Z,27.13
2018-04-18T19:22:59.237Z,32.10
2018-04-18T19:25:27.017Z,38.17
2018-04-18T19:27:54.596Z,25.37
2018-04-18T19:30:22.163Z,26.07
2018-04-18T19:32:49.741Z,31.33
2018-04-18T19:35:17.347Z,37.10
2018-04-18T19:37:44.915Z,30.40
2018-04-18T19:40:12.537Z,26.80
2018-04-18T19:42:40.133Z,25.07
2018-04-18T19:50:58.339Z,28.53
2018-04-18T19:53:25.984Z,25.27
2018-04-18T19:55:53.553Z,26.40
2018-04-18T19:58:21.144Z,23.80
2018-04-18T20:00:48.739Z,27.40
2018-04-18T20:03:16.341Z,23.20
2018-04-18T20:05:43.958Z,27.60
2018-04-18T20:08:11.577Z,26.40
2018-04-18T20:10:39.159Z,26.80
2018-04-18T20:13:06.725Z,27.10
2018-04-18T20:15:34.291Z,22.30
2018-04-18T20:18:01.866Z,23.97
2018-04-18T20:20:29.494Z,27.87
2018-04-18T20:22:57.068Z,23.90
2018-04-18T20:25:24.678Z,27.23
2018-04-18T20:27:52.305Z,24.70
2018-04-18T20:30:19.929Z,27.93
2018-04-18T20:32:47.653Z,29.10
2018-04-18T20:35:15.213Z,31.63
2018-04-18T20:37:42.774Z,32.43
2018-04-18T20:40:10.337Z,28.17
2018-04-18T20:42:37.896Z,28.13
2018-04-18T20:45:05.728Z,25.93
2018-04-18T20:47:33.309Z,30.90
2018-04-18T20:50:00.908Z,30.47
2018-04-18T20:52:28.508Z,30.30
2018-04-18T20:54:56.103Z,32.83
2018-04-18T20:57:23.667Z,31.67
2018-04-18T20:59:51.221Z,31.77
2018-04-18T21:02:18.798Z,31.87
2018-04-18T21:04:46.374Z,29.90
2018-04-18T21:07:13.942Z,30.40
2018-04-18T21:09:41.566Z,30.93
2018-04-18T21:12:09.149Z,31.80
2018-04-18T21:14:36.760Z,29.73
2018-04-18T21:17:04.331Z,29.33
2018-04-18T21:19:31.890Z,30.47
2018-04-18T21:21:59.467Z,30.67
2018-04-18T21:24:27.095Z,27.37
2018-04-18T21:26:54.666Z,31.07
2018-04-18T21:29:22.239Z,31.37
2018-04-18T21:31:49.808Z,32.43
2018-04-18T21:34:17.410Z,34.80
2018-04-18T21:36:44.965Z,32.93
2018-04-18T21:39:12.547Z,35.37
2018-04-18T21:41:40.128Z,29.77
2018-04-18T21:44:07.685Z,33.47
2018-04-18T21:46:35.260Z,34.27
2018-04-18T21:49:02.842Z,35.13
2018-04-18T21:51:30.439Z,35.90
2018-04-18T21:53:57.994Z,33.17
2018-04-18T21:56:25.579Z,34.37
2018-04-18T21:58:53.161Z,30.97
2018-04-18T22:10:09.118Z,31.50
2018-04-18T22:12:36.693Z,32.23
2018-04-18T22:15:04.282Z,33.73
2018-04-18T22:17:31.842Z,36.13
2018-04-18T22:19:59.407Z,31.60
2018-04-18T22:22:26.988Z,30.73
2018-04-18T22:24:54.552Z,35.97
2018-04-18T22:27:22.103Z,35.33
2018-04-18T22:29:49.688Z,35.77
2018-04-18T22:32:17.276Z,34.97
2018-04-18T22:34:44.869Z,31.13
2018-04-18T22:37:12.521Z,32.23
2018-04-18T22:39:40.118Z,34.83
2018-04-18T22:42:07.684Z,34.00
2018-04-18T22:44:35.257Z,32.30
2018-04-18T22:47:02.853Z,32.77
2018-04-18T22:49:30.429Z,41.10
2018-04-18T22:51:58.011Z,36.87
2018-04-18T22:54:25.585Z,39.27
2018-04-18T22:56:53.193Z,40.87
2018-04-18T22:59:20.801Z,37.43
2018-04-18T23:01:48.368Z,41.03
2018-04-18T23:04:15.972Z,40.93
2018-04-18T23:06:43.536Z,41.63
2018-04-18T23:09:11.114Z,36.70
2018-04-18T23:11:38.692Z,41.20
2018-04-18T23:14:06.244Z,41.37
2018-04-18T23:16:33.830Z,40.37
2018-04-18T23:19:01.427Z,42.57
2018-04-18T23:21:29.004Z,43.43
2018-04-18T23:23:56.591Z,42.70
2018-04-18T23:26:24.160Z,43.67
2018-04-18T23:28:51.726Z,40.13
2018-04-18T23:31:19.304Z,40.33
2018-04-18T23:33:46.858Z,40.77
2018-04-18T23:36:14.469Z,43.33
2018-04-18T23:38:42.026Z,40.83
2018-04-18T23:41:09.586Z,43.07
2018-04-18T23:43:37.206Z,38.97
2018-04-18T23:46:04.772Z,41.70
2018-04-18T23:48:32.354Z,39.83
2018-04-18T23:50:59.901Z,42.93
2018-04-18T23:53:27.468Z,48.03
2018-04-18T23:55:55.033Z,39.40
2018-04-18T23:58:22.586Z,39.70
